Time Latitude Longitude Accuracy (66% radius in meters) Altitude (meters) Speed (km/hour) Bearing (degrees) Battery (%) GPS flag
10:41:44 60.018065 30.339810 10 53 1.2059850692749 198.69999694824 34 1 delete
10:41:34 60.018140 30.339880 9 55 0.46615448594093 251.10000610352 34 1 delete
10:41:32 60.018145 30.339910 10 53 0.8800567984581 210.80000305176 34 1 delete
10:41:24 60.018236 30.339971 9 51 1.3209466934204 217.5 34 1 delete
10:41:23 60.018241 30.339978 9 51 1.4100354909897 218.5 34 1 delete
10:41:16 60.018273 30.340140 9 56 1.2924782037735 229.19999694824 34 1 delete
10:41:13 60.018311 30.340202 9 54 0.95084172487259 228.60000610352 34 1 delete
10:41:09 60.018348 30.340276 9 55 0.6139218211174 232.39999389648 34 1 delete
10:41:03 60.018375 30.340385 9 55 1.2819125652313 232 34 1 delete
10:40:58 60.018416 30.340410 9 50 0.99247169494629 232.69999694824 47 1 delete
10:40:53 60.018466 30.340500 9 48 0.74168729782104 227.60000610352 47 1 delete
10:40:50 60.018488 30.340533 9 48 0.93648278713226 212.60000610352 47 1 delete
10:40:43 60.018549 30.340672 9 50 0.80156099796295 295.89999389648 47 1 delete
10:40:42 60.018544 30.340695 9 49 0.82054859399796 304.79998779297 47 1 delete
10:40:32 60.018539 30.340803 9 52 1.0101979970932 263.70001220703 47 1 delete
10:40:30 60.018547 30.340858 9 51 0.74726170301437 243.19999694824 47 1 delete
10:40:22 60.018553 30.340960 9 50 0 0 47 1 delete
10:40:11 60.018570 30.341093 9 47 0 0 47 1 delete
10:40:01 60.018570 30.341093 9 47 0 0 47 1 delete
10:39:51 60.018577 30.341102 9 47 0 0 47 1 delete
10:39:41 60.018557 30.340990 9 50 1.3003460168839 32.099998474121 47 1 delete
10:39:36 60.018514 30.341038 10 52 0.85023528337479 292.70001220703 47 1 delete
10:39:30 60.018519 30.341127 10 54 1.0001999139786 294.70001220703 47 1 delete
10:39:20 60.018531 30.341251 10 55 0.66370177268982 307 47 1 delete
10:39:10 60.018543 30.341296 9 55 0 0 47 1 delete
10:38:59 60.018543 30.341295 9 55 0 0 47 1 delete
10:38:49 60.018544 30.341291 9 54 0 0 47 1 delete
10:38:39 60.018548 30.341271 9 53 0 0 47 1 delete
10:38:29 60.018535 30.341229 9 53 0 0 47 1 delete
10:38:19 60.018554 30.341199 9 55 0.97082442045212 217.19999694824 47 1 delete
10:38:18 60.018556 30.341170 9 54 1.0107917785645 217.19999694824 47 1 delete
10:38:08 60.018574 30.341109 9 52 0 0 47 1 delete
10:37:58 60.018611 30.341085 9 54 0 0 47 1 delete
10:37:53 60.018624 30.341063 9 53 0 0 47 1 delete
10:37:47 60.018687 30.341010 9 49 1.600781083107 139.89999389648 47 1 delete
10:37:46 60.018702 30.340968 9 48 1.763774394989 140.30000305176 47 1 delete
10:37:41 60.018789 30.340783 9 47 2.9421081542969 133.80000305176 47 1 delete
10:37:38 60.018844 30.340583 10 46 3.2144985198975 131.80000305176 47 1 delete
10:37:37 60.018865 30.340516 10 45 2.8460674285889 144 47 1 delete
10:37:35 60.018909 30.340422 10 44 3.1351716518402 125.59999847412 47 1 delete
10:37:32 60.018962 30.340205 10 42 3.8242516517639 104.30000305176 47 1 delete
10:37:28 60.018993 30.339945 10 42 3.8200521469116 98.099998474121 47 1 delete
10:37:27 60.019013 30.339860 10 42 3.8000524044037 85.800003051758 47 1 delete
10:37:26 60.019011 30.339764 10 42 3.4700000286102 82.900001525879 47 1 delete
10:37:23 60.019000 30.339547 10 44 3.2512457370758 91.300003051758 47 1 delete
10:37:18 60.019010 30.339309 10 48 1.9262917041779 139.39999389648 47 1 delete
10:37:17 60.019014 30.339272 10 48 2.3181240558624 140.69999694824 47 1 delete
10:37:14 60.019089 30.339179 10 49 2.9149615764618 148 47 1 delete
10:37:11 60.019177 30.339111 9 49 2.3100864887238 162.89999389648 47 1 delete
10:37:07 60.019279 30.339079 9 49 1.4829699993134 166.60000610352 47 1 delete